createdAt,value
2023-05-13T00:00:45.269Z,80.26
2023-05-13T00:01:50.826Z,80.18
2023-05-13T00:03:00.871Z,80.11
2023-05-13T00:04:06.097Z,80.00
2023-05-13T00:05:12.770Z,80.39
2023-05-13T00:06:17.406Z,80.33
2023-05-13T00:07:23.811Z,80.38
2023-05-13T00:08:28.648Z,80.35
2023-05-13T00:09:34.556Z,80.44
2023-05-13T00:10:39.079Z,80.65
2023-05-13T00:11:45.516Z,81.03
2023-05-13T00:12:49.555Z,80.73
2023-05-13T00:13:54.132Z,80.87
2023-05-13T00:14:58.462Z,80.87
2023-05-13T00:16:06.112Z,80.91
2023-05-13T00:17:10.751Z,80.93
2023-05-13T00:18:19.261Z,81.10
2023-05-13T00:19:24.750Z,81.03
2023-05-13T00:20:31.743Z,81.28
2023-05-13T00:21:37.070Z,81.17
2023-05-13T00:22:43.378Z,81.35
2023-05-13T00:23:49.541Z,81.35
2023-05-13T00:24:56.325Z,81.39
2023-05-13T00:26:02.501Z,81.36
2023-05-13T00:27:08.108Z,81.75
2023-05-13T00:28:15.277Z,81.39
2023-05-13T00:29:20.618Z,81.29
2023-05-13T00:30:25.958Z,81.60
2023-05-13T00:31:32.096Z,81.79
2023-05-13T00:32:35.434Z,81.77
2023-05-13T00:33:43.003Z,81.90
2023-05-13T00:34:47.504Z,81.79
2023-05-13T00:35:52.689Z,81.40
2023-05-13T00:36:56.334Z,81.88
2023-05-13T00:38:02.353Z,81.97
2023-05-13T00:39:08.714Z,81.87
2023-05-13T00:40:24.946Z,81.83
2023-05-13T00:41:30.805Z,82.02
2023-05-13T00:42:35.083Z,81.85
2023-05-13T00:43:39.743Z,81.77
2023-05-13T00:44:45.881Z,81.89
2023-05-13T00:45:51.112Z,81.79
2023-05-13T00:46:58.065Z,81.58
2023-05-13T00:48:02.839Z,81.62
2023-05-13T00:49:10.015Z,81.78
2023-05-13T00:50:16.660Z,81.46
2023-05-13T00:51:22.654Z,81.45
2023-05-13T00:52:27.517Z,81.67
2023-05-13T00:53:35.938Z,81.62
2023-05-13T00:54:39.756Z,81.67
2023-05-13T00:55:45.078Z,81.90
2023-05-13T00:56:49.432Z,81.81
2023-05-13T00:57:55.680Z,81.84
2023-05-13T00:59:00.032Z,81.68
2023-05-13T01:00:07.452Z,82.07
2023-05-13T01:01:22.014Z,82.09
2023-05-13T01:02:44.744Z,82.45
2023-05-13T01:03:57.361Z,82.23
2023-05-13T01:05:15.728Z,82.55
2023-05-13T01:06:24.690Z,82.67
2023-05-13T01:07:37.544Z,82.79
2023-05-13T01:08:50.102Z,82.88
2023-05-13T01:10:06.655Z,82.96
2023-05-13T01:11:17.532Z,83.23
2023-05-13T01:12:27.837Z,83.21
2023-05-13T01:13:44.779Z,83.13
2023-05-13T01:14:59.536Z,83.24
2023-05-13T01:16:12.735Z,83.48
2023-05-13T01:17:24.221Z,83.51
2023-05-13T01:18:35.725Z,83.64
2023-05-13T01:19:43.646Z,83.64
2023-05-13T01:20:51.438Z,83.70
2023-05-13T01:21:56.943Z,83.89
2023-05-13T01:23:01.600Z,83.80
2023-05-13T01:24:08.771Z,84.04
2023-05-13T01:25:17.447Z,83.84
2023-05-13T01:26:22.165Z,83.77
2023-05-13T01:27:28.355Z,84.07
2023-05-13T01:28:33.108Z,84.17
2023-05-13T01:29:39.489Z,84.18
2023-05-13T01:30:44.419Z,84.03
2023-05-13T01:31:50.583Z,84.38
2023-05-13T01:32:54.652Z,84.17
2023-05-13T01:34:01.751Z,84.25
2023-05-13T01:35:07.939Z,84.23
2023-05-13T01:36:13.352Z,84.33
2023-05-13T01:37:19.623Z,84.40
2023-05-13T01:38:26.276Z,84.50
2023-05-13T01:39:32.816Z,84.25
2023-05-13T01:40:38.456Z,84.35
2023-05-13T01:41:43.457Z,84.28
2023-05-13T01:42:49.959Z,84.26
2023-05-13T01:43:54.670Z,84.31
2023-05-13T01:45:00.740Z,84.43
2023-05-13T01:46:05.216Z,84.04
2023-05-13T01:47:11.268Z,84.02
2023-05-13T01:48:14.590Z,84.21
2023-05-13T01:49:20.563Z,84.35
2023-05-13T01:50:24.737Z,84.29
2023-05-13T01:51:32.774Z,84.02
2023-05-13T01:52:39.227Z,84.13
2023-05-13T01:53:45.337Z,83.84
2023-05-13T01:54:49.170Z,84.24
2023-05-13T01:55:53.525Z,83.97
2023-05-13T01:56:58.997Z,83.88
2023-05-13T01:58:04.980Z,83.97
2023-05-13T01:59:11.885Z,83.53
2023-05-13T02:00:16.954Z,83.98
2023-05-13T02:01:28.947Z,84.20
2023-05-13T02:02:33.139Z,83.93
2023-05-13T02:03:42.626Z,84.16
2023-05-13T02:04:48.172Z,83.95
2023-05-13T02:05:53.862Z,84.08
2023-05-13T02:06:58.809Z,83.89
2023-05-13T02:08:04.912Z,84.46
2023-05-13T02:09:13.191Z,84.18
2023-05-13T02:10:19.148Z,84.46
2023-05-13T02:11:24.625Z,84.53
2023-05-13T02:12:29.923Z,84.33
2023-05-13T02:13:34.689Z,84.45
2023-05-13T02:14:40.965Z,84.48
2023-05-13T02:15:45.403Z,84.40
2023-05-13T02:16:49.574Z,84.54
2023-05-13T02:17:54.037Z,84.65
2023-05-13T02:18:59.439Z,84.57
2023-05-13T02:20:04.214Z,84.33
2023-05-13T02:21:09.904Z,84.67
2023-05-13T02:22:14.625Z,84.84
2023-05-13T02:23:20.412Z,84.78
2023-05-13T02:24:26.763Z,84.83
2023-05-13T02:25:33.254Z,84.86
2023-05-13T02:26:38.278Z,84.85
2023-05-13T02:27:42.703Z,85.03
2023-05-13T02:28:49.062Z,84.79
2023-05-13T02:29:53.117Z,84.85
2023-05-13T02:31:00.950Z,84.69
2023-05-13T02:32:06.335Z,85.16
2023-05-13T02:33:12.258Z,85.15
2023-05-13T02:34:16.926Z,85.11
2023-05-13T02:35:20.716Z,85.04
2023-05-13T02:36:25.892Z,84.97
2023-05-13T02:37:31.768Z,84.91
2023-05-13T02:38:37.830Z,84.99
2023-05-13T02:39:43.504Z,84.73
2023-05-13T02:40:50.090Z,84.75
2023-05-13T02:41:54.841Z,85.02
2023-05-13T02:42:58.626Z,85.43
2023-05-13T02:44:05.230Z,85.20
2023-05-13T02:45:11.295Z,85.09
2023-05-13T02:46:16.565Z,85.13
2023-05-13T02:47:19.978Z,85.05
2023-05-13T02:48:28.437Z,85.05
2023-05-13T02:49:33.037Z,85.22
2023-05-13T02:50:39.549Z,85.16
2023-05-13T02:51:43.036Z,85.20
2023-05-13T02:52:48.510Z,85.15
2023-05-13T02:53:54.463Z,85.22
2023-05-13T02:54:58.885Z,85.04
2023-05-13T02:56:03.955Z,85.06
2023-05-13T02:57:09.568Z,84.94
2023-05-13T02:58:14.017Z,84.66
2023-05-13T02:59:18.792Z,84.88
2023-05-13T03:00:32.012Z,84.96
2023-05-13T03:01:41.370Z,84.96
2023-05-13T03:02:48.368Z,84.70
2023-05-13T03:03:56.425Z,84.75
2023-05-13T03:05:02.091Z,84.56
2023-05-13T03:06:08.352Z,84.73
2023-05-13T03:07:11.868Z,84.67
2023-05-13T03:08:17.461Z,84.76
2023-05-13T03:09:21.915Z,84.55
2023-05-13T03:10:27.564Z,84.56
2023-05-13T03:11:33.541Z,84.65
2023-05-13T03:12:37.916Z,84.77
2023-05-13T03:13:42.748Z,84.87
2023-05-13T03:14:47.007Z,84.43
2023-05-13T03:15:52.649Z,84.68
2023-05-13T03:16:57.691Z,84.63
2023-05-13T03:18:02.115Z,84.72
2023-05-13T03:19:07.410Z,84.64
2023-05-13T03:20:13.571Z,84.77
2023-05-13T03:21:18.126Z,84.93
2023-05-13T03:22:23.388Z,85.06
2023-05-13T03:23:28.056Z,85.20
2023-05-13T03:24:34.391Z,85.09
2023-05-13T03:25:38.353Z,84.69
2023-05-13T03:26:43.676Z,84.89
2023-05-13T03:27:48.993Z,84.82
2023-05-13T03:28:54.385Z,84.60
2023-05-13T03:30:00.669Z,84.62
2023-05-13T03:31:07.304Z,84.49
2023-05-13T03:32:12.529Z,84.68
2023-05-13T03:33:19.204Z,84.71
2023-05-13T03:34:23.642Z,84.75
2023-05-13T03:35:28.957Z,84.61
2023-05-13T03:36:34.743Z,84.73
2023-05-13T03:37:40.469Z,84.71
2023-05-13T03:38:45.540Z,84.56
2023-05-13T03:39:51.739Z,84.63
2023-05-13T03:40:55.993Z,84.84
2023-05-13T03:42:00.620Z,84.66
2023-05-13T03:43:07.179Z,84.53
2023-05-13T03:44:12.870Z,84.81
2023-05-13T03:45:19.210Z,84.81
2023-05-13T03:46:23.610Z,84.65
2023-05-13T03:47:29.342Z,84.54
2023-05-13T03:48:33.883Z,84.55
2023-05-13T03:49:39.374Z,84.73
2023-05-13T03:50:45.774Z,84.69
2023-05-13T03:51:51.250Z,84.39
2023-05-13T03:52:55.334Z,84.73
2023-05-13T03:54:00.268Z,84.49
2023-05-13T03:55:07.913Z,84.54
2023-05-13T03:56:14.359Z,84.43
2023-05-13T03:57:18.448Z,84.54
2023-05-13T03:58:23.428Z,84.77
2023-05-13T03:59:27.665Z,84.71
2023-05-13T04:00:33.493Z,84.68
2023-05-13T04:01:37.969Z,84.85
2023-05-13T04:02:44.580Z,84.82
2023-05-13T04:03:49.991Z,84.99
2023-05-13T04:04:54.557Z,84.91
2023-05-13T04:05:57.662Z,84.94
2023-05-13T04:07:03.456Z,84.83
2023-05-13T04:08:07.159Z,85.19
2023-05-13T04:09:12.853Z,85.10
2023-05-13T04:10:18.413Z,85.04
2023-05-13T04:11:23.901Z,85.13
2023-05-13T04:12:27.701Z,84.95
2023-05-13T04:13:33.528Z,85.08
2023-05-13T04:14:38.601Z,84.92
2023-05-13T04:15:45.980Z,85.32
2023-05-13T04:16:49.500Z,85.64
2023-05-13T04:17:55.713Z,85.10
2023-05-13T04:19:02.306Z,85.27
2023-05-13T04:20:08.004Z,85.12
2023-05-13T04:21:12.009Z,84.95
2023-05-13T04:22:19.239Z,84.93
2023-05-13T04:23:23.372Z,85.08
2023-05-13T04:24:29.264Z,85.09
2023-05-13T04:25:38.635Z,85.27
2023-05-13T04:26:44.475Z,84.96
2023-05-13T04:27:48.864Z,84.74
2023-05-13T04:28:53.711Z,85.03
2023-05-13T04:29:59.013Z,85.05
2023-05-13T04:31:04.847Z,85.21
2023-05-13T04:32:08.610Z,85.20
2023-05-13T04:33:15.658Z,85.02
2023-05-13T04:34:21.101Z,85.33
2023-05-13T04:35:27.077Z,84.95
2023-05-13T04:36:30.973Z,84.92
2023-05-13T04:37:37.796Z,84.98
2023-05-13T04:38:43.614Z,84.98
2023-05-13T04:39:49.654Z,84.65
2023-05-13T04:40:55.322Z,84.69
2023-05-13T04:42:00.326Z,84.93
2023-05-13T04:43:04.508Z,84.65
2023-05-13T04:44:10.870Z,84.44
2023-05-13T04:45:15.124Z,84.42
2023-05-13T04:46:22.453Z,84.66
2023-05-13T04:47:26.740Z,84.68
2023-05-13T04:48:32.176Z,84.15
2023-05-13T04:49:36.581Z,84.41
2023-05-13T04:50:49.184Z,84.36
2023-05-13T04:51:55.213Z,84.38
2023-05-13T04:52:59.587Z,84.55
2023-05-13T04:54:04.005Z,84.35
2023-05-13T04:55:10.589Z,84.33
2023-05-13T04:56:18.178Z,84.40
2023-05-13T04:57:23.456Z,84.39
2023-05-13T04:58:27.397Z,84.45
2023-05-13T04:59:32.235Z,84.64
2023-05-13T05:00:36.933Z,85.06
2023-05-13T05:01:42.273Z,84.66
2023-05-13T05:02:47.574Z,84.66
2023-05-13T05:03:53.262Z,84.53
2023-05-13T05:04:58.914Z,84.59
2023-05-13T05:06:04.547Z,84.50
2023-05-13T05:07:09.182Z,84.57
2023-05-13T05:08:14.530Z,84.28
2023-05-13T05:09:19.519Z,84.71
2023-05-13T05:10:25.638Z,84.41
2023-05-13T05:11:31.789Z,84.35
2023-05-13T05:12:38.801Z,84.45
2023-05-13T05:13:42.915Z,84.54
2023-05-13T05:14:48.210Z,84.51
2023-05-13T05:15:53.348Z,84.41
2023-05-13T05:16:57.735Z,84.27
2023-05-13T05:18:02.101Z,84.40
2023-05-13T05:19:07.373Z,84.40
2023-05-13T05:20:12.327Z,84.31
2023-05-13T05:21:19.055Z,84.33
2023-05-13T05:22:24.031Z,83.95
2023-05-13T05:23:28.538Z,84.08
2023-05-13T05:24:32.744Z,83.77
2023-05-13T05:25:38.883Z,83.78
2023-05-13T05:26:45.165Z,83.76
2023-05-13T05:27:49.618Z,83.65
2023-05-13T05:28:55.680Z,83.55
2023-05-13T05:30:00.333Z,83.05
2023-05-13T05:31:06.506Z,83.24
2023-05-13T05:32:09.972Z,83.04
2023-05-13T05:33:15.488Z,83.07
2023-05-13T05:34:19.437Z,83.01
2023-05-13T05:35:25.031Z,82.80
2023-05-13T05:36:30.261Z,82.67
2023-05-13T05:37:38.575Z,82.60
2023-05-13T05:38:44.057Z,82.53
2023-05-13T05:39:49.798Z,82.43
2023-05-13T05:40:55.575Z,82.17
2023-05-13T05:42:04.484Z,81.71
2023-05-13T05:43:12.394Z,81.34
2023-05-13T05:44:17.647Z,81.20
2023-05-13T05:45:29.327Z,80.87
2023-05-13T05:46:34.793Z,80.42
2023-05-13T05:47:41.199Z,79.84
2023-05-13T05:48:46.917Z,79.59
2023-05-13T05:49:53.483Z,79.17
2023-05-13T05:50:58.455Z,78.88
2023-05-13T05:52:04.176Z,78.57
2023-05-13T05:53:10.086Z,78.40
2023-05-13T05:54:14.885Z,78.01
2023-05-13T05:55:18.630Z,78.05
2023-05-13T05:56:25.560Z,77.92
2023-05-13T05:57:32.174Z,77.49
2023-05-13T05:58:37.954Z,77.64
2023-05-13T05:59:42.986Z,77.42
2023-05-13T06:00:49.323Z,76.94
2023-05-13T06:01:53.963Z,76.79
2023-05-13T06:03:00.294Z,76.41
2023-05-13T06:04:05.860Z,76.22
2023-05-13T06:05:13.516Z,75.88
2023-05-13T06:06:18.730Z,75.68
2023-05-13T06:07:23.952Z,75.68
2023-05-13T06:08:30.748Z,75.48
2023-05-13T06:09:37.292Z,75.52
2023-05-13T06:10:44.536Z,75.81
2023-05-13T06:11:53.006Z,75.65
2023-05-13T06:13:04.606Z,75.71
2023-05-13T06:14:14.087Z,75.79
2023-05-13T06:15:22.020Z,75.67
2023-05-13T06:16:29.613Z,76.15
2023-05-13T06:17:40.108Z,76.01
2023-05-13T06:18:44.800Z,76.02
2023-05-13T06:19:51.889Z,76.03
2023-05-13T06:20:55.679Z,75.96
2023-05-13T06:22:03.263Z,75.82
2023-05-13T06:23:09.891Z,76.08
2023-05-13T06:24:16.144Z,75.99
2023-05-13T06:25:21.664Z,76.01
2023-05-13T06:26:25.964Z,75.99
2023-05-13T06:27:30.756Z,75.57
2023-05-13T06:28:37.714Z,75.72
2023-05-13T06:29:42.209Z,75.70
2023-05-13T06:30:48.180Z,75.54
2023-05-13T06:31:51.821Z,75.63
2023-05-13T06:33:02.049Z,75.22
2023-05-13T06:34:08.286Z,75.35
2023-05-13T06:35:13.166Z,74.98
2023-05-13T06:36:17.935Z,74.69
2023-05-13T06:37:21.957Z,74.68
2023-05-13T06:38:28.341Z,74.28
2023-05-13T06:39:32.571Z,74.22
2023-05-13T06:40:37.747Z,74.36
2023-05-13T06:41:42.313Z,74.37
2023-05-13T06:42:48.360Z,74.40
2023-05-13T06:43:58.040Z,74.00
2023-05-13T06:45:13.206Z,74.01
2023-05-13T06:46:19.151Z,74.17
2023-05-13T06:47:24.413Z,74.29
2023-05-13T06:48:30.808Z,74.18
2023-05-13T06:49:35.374Z,74.31
2023-05-13T06:50:42.020Z,74.52
2023-05-13T06:51:46.334Z,74.27
2023-05-13T06:52:53.138Z,74.14
2023-05-13T06:53:58.110Z,74.32
2023-05-13T06:55:03.623Z,73.95
2023-05-13T06:56:08.090Z,73.44
2023-05-13T06:57:13.774Z,72.93
2023-05-13T06:58:18.730Z,72.34
2023-05-13T06:59:26.253Z,71.47
2023-05-13T07:00:31.863Z,70.50
2023-05-13T07:01:36.696Z,69.52
2023-05-13T07:02:40.823Z,69.36
2023-05-13T07:03:46.454Z,68.59
2023-05-13T07:04:51.461Z,67.50
2023-05-13T07:05:57.653Z,67.29
2023-05-13T07:07:02.167Z,67.14
2023-05-13T07:08:09.360Z,66.82
2023-05-13T07:09:14.465Z,65.96
2023-05-13T07:10:20.617Z,65.98
2023-05-13T07:11:25.985Z,65.29
2023-05-13T07:12:31.470Z,64.69
2023-05-13T07:13:35.915Z,64.29
2023-05-13T07:14:45.827Z,64.02
2023-05-13T07:15:51.614Z,63.27
2023-05-13T07:16:55.776Z,63.08
2023-05-13T07:18:01.398Z,62.49
2023-05-13T07:19:06.180Z,62.31
2023-05-13T07:20:12.245Z,62.54
2023-05-13T07:21:15.457Z,62.44
2023-05-13T07:22:22.723Z,62.32
2023-05-13T07:23:27.614Z,62.31
2023-05-13T07:24:33.449Z,62.55
2023-05-13T07:25:38.295Z,62.72
2023-05-13T07:26:44.146Z,62.46
2023-05-13T07:27:48.511Z,61.82
2023-05-13T07:28:54.006Z,61.38
2023-05-13T07:29:59.347Z,60.90
2023-05-13T07:31:03.765Z,60.34
2023-05-13T07:32:08.169Z,60.44
2023-05-13T07:33:14.331Z,60.51
2023-05-13T07:34:17.884Z,60.52
2023-05-13T07:35:24.118Z,60.10
2023-05-13T07:36:28.365Z,59.89
2023-05-13T07:37:33.049Z,58.60
2023-05-13T07:38:39.032Z,57.10
2023-05-13T07:39:44.279Z,55.88
2023-05-13T07:40:49.915Z,54.58
2023-05-13T07:41:55.360Z,55.09
2023-05-13T07:43:01.484Z,54.86
2023-05-13T07:44:07.356Z,55.07
2023-05-13T07:45:13.592Z,54.60
2023-05-13T07:46:18.114Z,54.38
2023-05-13T07:47:25.810Z,53.90
2023-05-13T07:48:29.741Z,54.27
2023-05-13T07:49:34.401Z,54.82
2023-05-13T07:50:40.049Z,54.78
2023-05-13T07:51:45.726Z,54.99
2023-05-13T07:52:51.488Z,55.08
2023-05-13T07:53:58.554Z,55.55
2023-05-13T07:55:03.477Z,55.74
2023-05-13T07:56:08.393Z,55.75
2023-05-13T07:57:13.843Z,55.79
2023-05-13T07:58:18.869Z,55.64
2023-05-13T07:59:24.195Z,55.03
2023-05-13T08:00:31.199Z,54.79
2023-05-13T08:01:37.037Z,55.60
2023-05-13T08:02:40.544Z,55.21
2023-05-13T08:03:46.121Z,54.83
2023-05-13T08:04:50.765Z,53.83
2023-05-13T08:05:57.412Z,53.50
2023-05-13T08:07:03.460Z,52.77
2023-05-13T08:08:08.345Z,52.23
2023-05-13T08:09:15.052Z,51.60
2023-05-13T08:10:20.783Z,50.54
2023-05-13T08:11:26.835Z,49.20
2023-05-13T08:12:31.247Z,49.21
2023-05-13T08:13:37.041Z,48.10
2023-05-13T08:14:41.702Z,47.49
2023-05-13T08:15:48.637Z,47.11
2023-05-13T08:16:53.405Z,45.78
2023-05-13T08:17:58.419Z,44.15
2023-05-13T08:19:03.049Z,43.21
2023-05-13T08:20:09.519Z,42.46
2023-05-13T08:21:15.234Z,41.30
2023-05-13T08:22:18.989Z,40.64
2023-05-13T08:23:28.343Z,40.94
2023-05-13T08:24:43.441Z,40.02
2023-05-13T08:25:48.151Z,39.28
2023-05-13T08:26:53.746Z,38.41
2023-05-13T08:28:01.191Z,38.13
2023-05-13T08:29:06.345Z,38.00
2023-05-13T08:30:10.503Z,37.76
2023-05-13T08:31:17.706Z,36.76
2023-05-13T08:32:21.427Z,36.62
2023-05-13T08:33:26.965Z,36.11
2023-05-13T08:34:31.501Z,37.04
2023-05-13T08:35:37.590Z,36.83
2023-05-13T08:36:41.467Z,36.84
2023-05-13T08:37:48.894Z,36.71
2023-05-13T08:38:55.728Z,35.47
2023-05-13T08:40:03.872Z,34.10
2023-05-13T08:41:08.772Z,33.22
2023-05-13T08:42:20.113Z,32.98
2023-05-13T08:43:29.080Z,33.10
2023-05-13T08:44:35.776Z,33.27
2023-05-13T08:45:40.398Z,32.38
2023-05-13T08:46:56.464Z,31.25
2023-05-13T08:48:03.553Z,31.02
2023-05-13T08:49:10.902Z,31.32
2023-05-13T08:50:16.290Z,31.22
2023-05-13T08:51:22.505Z,31.37
2023-05-13T08:52:28.848Z,30.77
2023-05-13T08:53:37.818Z,30.67
2023-05-13T08:54:46.264Z,30.70
2023-05-13T08:55:51.259Z,30.28
2023-05-13T08:56:56.443Z,29.96
2023-05-13T08:58:02.136Z,29.64
2023-05-13T08:59:07.158Z,29.21
2023-05-13T09:00:12.882Z,30.33
2023-05-13T09:01:21.148Z,30.30
2023-05-13T09:02:27.538Z,29.21
2023-05-13T09:03:33.949Z,30.86
2023-05-13T09:04:42.084Z,31.37
2023-05-13T09:05:48.103Z,30.35
2023-05-13T09:06:52.255Z,30.21
2023-05-13T09:07:58.873Z,30.86
2023-05-13T09:09:07.092Z,31.73
2023-05-13T09:10:14.659Z,33.85
2023-05-13T09:11:19.998Z,33.92
2023-05-13T09:12:48.386Z,35.00
2023-05-13T09:14:00.918Z,35.29
2023-05-13T09:15:10.758Z,35.92
2023-05-13T09:16:17.549Z,34.62
2023-05-13T09:17:23.166Z,34.92
2023-05-13T09:18:34.572Z,33.55
2023-05-13T09:19:39.783Z,32.88
2023-05-13T09:20:46.663Z,33.50
2023-05-13T09:21:56.515Z,34.47
2023-05-13T09:23:04.879Z,33.63
2023-05-13T09:24:12.279Z,34.54
2023-05-13T09:25:20.512Z,34.30
2023-05-13T09:26:32.618Z,35.43
2023-05-13T09:27:42.293Z,35.43
2023-05-13T09:28:49.038Z,33.92
2023-05-13T09:30:01.723Z,33.64
2023-05-13T09:31:06.653Z,33.10
2023-05-13T09:32:12.019Z,32.72
2023-05-13T09:33:21.079Z,32.45
2023-05-13T09:34:32.029Z,33.22
2023-05-13T09:35:38.510Z,34.86
2023-05-13T09:36:42.739Z,34.11
2023-05-13T09:37:51.059Z,34.83
2023-05-13T09:38:56.709Z,35.43
2023-05-13T09:40:04.482Z,35.95
2023-05-13T09:41:09.553Z,35.39
2023-05-13T09:42:19.788Z,37.21
2023-05-13T09:43:27.048Z,38.27
2023-05-13T09:44:31.977Z,38.64
2023-05-13T09:45:39.527Z,38.52
2023-05-13T09:46:45.513Z,38.85
2023-05-13T09:47:55.640Z,39.34
2023-05-13T09:48:59.862Z,38.95
2023-05-13T09:50:09.238Z,39.83
2023-05-13T09:51:16.739Z,39.27
2023-05-13T09:52:24.118Z,41.24
2023-05-13T09:53:30.140Z,42.09
2023-05-13T09:54:37.950Z,42.70
2023-05-13T09:55:48.916Z,43.13
2023-05-13T09:57:02.073Z,41.50
2023-05-13T09:58:13.924Z,41.08
2023-05-13T09:59:21.448Z,40.47
2023-05-13T10:00:32.714Z,39.96
2023-05-13T10:01:38.937Z,39.71
2023-05-13T10:02:46.582Z,40.12
2023-05-13T10:03:56.419Z,40.24
2023-05-13T10:05:03.723Z,41.99
2023-05-13T10:06:12.361Z,41.74
2023-05-13T10:07:18.631Z,42.16
2023-05-13T10:08:25.135Z,43.71
2023-05-13T10:09:33.429Z,44.89
2023-05-13T10:10:40.212Z,45.29
2023-05-13T10:11:48.249Z,45.44
2023-05-13T10:12:54.023Z,44.79
2023-05-13T10:14:03.484Z,44.68
2023-05-13T10:15:09.200Z,45.52
2023-05-13T10:16:18.728Z,44.39
2023-05-13T10:17:24.785Z,43.41
2023-05-13T10:18:31.438Z,43.40
2023-05-13T10:19:38.391Z,42.82
2023-05-13T10:20:43.711Z,42.25
2023-05-13T10:21:52.216Z,42.03
2023-05-13T10:23:00.935Z,41.24
2023-05-13T10:24:07.706Z,41.43
2023-05-13T10:25:14.445Z,41.32
2023-05-13T10:26:20.264Z,41.49
2023-05-13T10:27:28.490Z,40.10
2023-05-13T10:28:33.679Z,40.24
2023-05-13T10:29:42.246Z,42.03
2023-05-13T10:30:50.086Z,43.90
2023-05-13T10:31:58.652Z,44.42
2023-05-13T10:33:05.134Z,44.25
2023-05-13T10:34:10.934Z,43.70
2023-05-13T10:35:17.469Z,42.82
2023-05-13T10:36:47.756Z,42.70
2023-05-13T10:38:05.218Z,43.02
2023-05-13T10:39:40.141Z,44.02
2023-05-13T10:41:05.361Z,44.28
2023-05-13T10:42:44.392Z,42.84
2023-05-13T10:43:58.941Z,42.41
2023-05-13T10:45:03.368Z,42.42
2023-05-13T10:46:13.805Z,42.79
2023-05-13T10:47:21.606Z,42.37
2023-05-13T10:48:28.383Z,42.95
2023-05-13T10:49:36.660Z,42.71
2023-05-13T10:50:53.411Z,42.49
2023-05-13T10:52:05.951Z,41.75
2023-05-13T10:53:23.385Z,41.63
2023-05-13T10:54:29.832Z,42.20
2023-05-13T10:55:48.269Z,42.49
2023-05-13T10:56:59.475Z,41.46
2023-05-13T10:58:13.122Z,41.35
2023-05-13T10:59:21.543Z,41.55
2023-05-13T11:00:32.740Z,42.56
2023-05-13T11:01:43.598Z,42.54
2023-05-13T11:02:53.758Z,43.27
2023-05-13T11:04:02.476Z,43.31
2023-05-13T11:05:08.880Z,43.87
2023-05-13T11:06:20.095Z,44.93
2023-05-13T11:07:24.037Z,45.76
2023-05-13T11:08:46.218Z,45.31
2023-05-13T11:09:52.330Z,45.01
2023-05-13T11:10:57.650Z,45.15
2023-05-13T11:12:03.784Z,45.28
2023-05-13T11:13:10.666Z,45.69
2023-05-13T11:14:21.480Z,46.55
2023-05-13T11:15:26.252Z,46.09
2023-05-13T11:16:32.350Z,45.45
2023-05-13T11:17:39.199Z,44.28
2023-05-13T11:18:46.799Z,44.76
2023-05-13T11:19:55.393Z,44.00
2023-05-13T11:21:05.692Z,44.73
2023-05-13T11:22:12.164Z,45.52
2023-05-13T11:23:20.463Z,45.30
2023-05-13T11:24:27.218Z,44.36
2023-05-13T11:25:30.493Z,44.47
2023-05-13T11:26:47.439Z,44.25
2023-05-13T11:27:52.501Z,44.19
2023-05-13T11:29:03.351Z,43.79
2023-05-13T11:30:09.492Z,44.34
2023-05-13T11:31:18.555Z,44.31
2023-05-13T11:32:54.463Z,43.52
2023-05-13T11:34:09.948Z,45.43
2023-05-13T11:35:15.728Z,46.22
2023-05-13T11:36:20.783Z,46.71
2023-05-13T11:37:27.717Z,46.40
2023-05-13T11:38:34.174Z,46.44
2023-05-13T11:39:41.673Z,46.31
2023-05-13T11:40:46.120Z,45.40
2023-05-13T11:41:52.568Z,43.64
2023-05-13T11:42:56.655Z,43.41
2023-05-13T11:44:03.319Z,43.22
2023-05-13T11:45:10.950Z,44.16
2023-05-13T11:46:23.461Z,44.14
2023-05-13T11:47:29.735Z,44.16
2023-05-13T11:48:35.407Z,43.93
2023-05-13T11:49:42.480Z,43.17
2023-05-13T11:51:19.698Z,43.80
2023-05-13T11:52:24.686Z,43.60
2023-05-13T11:53:28.438Z,43.09
2023-05-13T11:54:33.028Z,42.96
2023-05-13T11:55:38.821Z,43.80
2023-05-13T11:56:44.474Z,44.61
2023-05-13T11:57:52.073Z,44.09
2023-05-13T11:58:59.037Z,44.07
2023-05-13T12:00:07.790Z,43.19
2023-05-13T12:01:23.300Z,43.76
2023-05-13T12:02:30.236Z,44.11
2023-05-13T12:03:35.781Z,44.42
2023-05-13T12:04:40.079Z,44.40
2023-05-13T12:05:45.733Z,44.60
2023-05-13T12:06:52.561Z,45.25
2023-05-13T12:07:59.793Z,46.36
2023-05-13T12:09:08.269Z,46.48
2023-05-13T12:10:13.748Z,45.21
2023-05-13T12:11:19.511Z,44.67
2023-05-13T12:12:24.902Z,44.44
2023-05-13T12:13:28.652Z,43.98
2023-05-13T12:14:34.578Z,43.90
2023-05-13T12:15:38.464Z,43.88
2023-05-13T12:16:43.346Z,43.64
2023-05-13T12:17:47.689Z,43.93
2023-05-13T12:18:58.896Z,43.69
2023-05-13T12:20:07.947Z,43.25
2023-05-13T12:21:19.992Z,43.30
2023-05-13T12:22:23.821Z,43.77
2023-05-13T12:23:27.829Z,44.51
2023-05-13T12:24:35.628Z,44.58
2023-05-13T12:25:45.399Z,44.84
2023-05-13T12:26:51.517Z,44.90
2023-05-13T12:27:55.528Z,44.28
2023-05-13T12:29:01.883Z,44.15
2023-05-13T12:30:08.494Z,44.11
2023-05-13T12:31:21.183Z,45.79
2023-05-13T12:32:26.422Z,45.68
2023-05-13T12:33:32.672Z,45.58
2023-05-13T12:34:39.729Z,44.82
2023-05-13T12:35:50.414Z,44.56
2023-05-13T12:36:57.445Z,43.85
2023-05-13T12:38:05.332Z,44.55
2023-05-13T12:39:12.841Z,44.77
2023-05-13T12:40:19.291Z,44.83
2023-05-13T12:41:27.519Z,44.90
2023-05-13T12:42:35.646Z,45.04
2023-05-13T12:43:44.248Z,45.67
2023-05-13T12:44:49.712Z,45.32
2023-05-13T12:45:57.629Z,45.40
2023-05-13T12:47:04.143Z,45.04
2023-05-13T12:48:11.308Z,44.35
2023-05-13T12:49:18.605Z,44.11
2023-05-13T12:50:24.579Z,43.94
2023-05-13T12:51:33.621Z,44.37
2023-05-13T12:52:38.447Z,43.91
2023-05-13T12:53:44.872Z,43.35
2023-05-13T12:54:49.872Z,44.22
2023-05-13T12:55:56.628Z,45.02
2023-05-13T12:57:05.700Z,44.98
2023-05-13T12:58:12.022Z,45.64
2023-05-13T12:59:19.921Z,45.92
2023-05-13T13:00:26.434Z,45.53
2023-05-13T13:01:33.611Z,45.31
2023-05-13T13:02:40.473Z,44.65
2023-05-13T13:03:46.995Z,44.60
2023-05-13T13:04:52.564Z,44.26
2023-05-13T13:05:59.659Z,43.92
2023-05-13T13:07:05.788Z,44.01
2023-05-13T13:08:13.800Z,44.24
2023-05-13T13:09:20.269Z,44.02
2023-05-13T13:10:25.320Z,43.06
2023-05-13T13:11:33.038Z,42.61
2023-05-13T13:12:37.235Z,42.51
2023-05-13T13:13:44.959Z,42.67
2023-05-13T13:14:51.448Z,42.74
2023-05-13T13:15:59.717Z,42.82
2023-05-13T13:17:06.326Z,42.63
2023-05-13T13:18:14.462Z,43.15
2023-05-13T13:19:24.038Z,43.38
2023-05-13T13:20:32.105Z,42.70
2023-05-13T13:21:39.145Z,43.12
2023-05-13T13:22:48.281Z,43.23
2023-05-13T13:23:55.346Z,43.23
2023-05-13T13:25:01.659Z,43.76
2023-05-13T13:26:08.935Z,44.17
2023-05-13T13:27:14.044Z,44.52
2023-05-13T13:28:17.979Z,45.20
2023-05-13T13:29:24.065Z,45.05
2023-05-13T13:30:30.475Z,44.96
2023-05-13T13:31:34.716Z,44.95
2023-05-13T13:32:39.689Z,45.13
2023-05-13T13:33:44.244Z,45.18
2023-05-13T13:34:48.719Z,45.40
2023-05-13T13:35:54.112Z,45.92
2023-05-13T13:37:00.150Z,45.64
2023-05-13T13:38:06.195Z,45.57
2023-05-13T13:39:10.796Z,45.90
2023-05-13T13:40:19.392Z,46.18
2023-05-13T13:41:28.077Z,46.55
2023-05-13T13:42:43.355Z,46.69
2023-05-13T13:43:50.729Z,47.10
2023-05-13T13:44:56.672Z,47.06
2023-05-13T13:46:03.537Z,46.87
2023-05-13T13:47:10.451Z,46.69
2023-05-13T13:48:17.735Z,47.12
2023-05-13T13:49:24.347Z,47.34
2023-05-13T13:50:30.448Z,47.54
2023-05-13T13:51:35.571Z,47.95
2023-05-13T13:52:44.310Z,48.26
2023-05-13T13:53:48.252Z,48.63
2023-05-13T13:54:53.465Z,48.61
2023-05-13T13:56:00.613Z,48.69
2023-05-13T13:57:05.706Z,49.20
2023-05-13T13:58:12.322Z,49.23
2023-05-13T13:59:17.235Z,49.40
2023-05-13T14:00:24.220Z,49.93
2023-05-13T14:01:29.648Z,49.98
2023-05-13T14:02:35.871Z,50.31
2023-05-13T14:03:42.555Z,50.38
2023-05-13T14:04:49.189Z,50.95
2023-05-13T14:05:55.793Z,51.05
2023-05-13T14:07:01.992Z,51.40
2023-05-13T14:08:09.346Z,51.83
2023-05-13T14:09:16.079Z,52.10
2023-05-13T14:10:22.872Z,52.31
2023-05-13T14:11:29.896Z,52.34
2023-05-13T14:12:36.316Z,52.60
2023-05-13T14:13:41.441Z,53.19
2023-05-13T14:14:47.548Z,53.36
2023-05-13T14:15:57.091Z,53.58
2023-05-13T14:17:02.409Z,53.56
2023-05-13T14:18:08.705Z,53.67
2023-05-13T14:19:14.428Z,53.76
2023-05-13T14:20:21.813Z,53.98